Time;durP1;ratioP1;P1;durP2;ratioP2;P2;SDS_P1;SDS_P2;PMS_P1;PMS_P2;Temp;Humidity;BMP_temperature;BMP_pressure;BME280_temperature;BME280_humidity;BME280_pressure;Samples;Min_cycle;Max_cycle;Signal;HPM_P1;HPM_P2
2022/04/21 00:05:12;;;;;;;9.07;4.17;;;;;;;7.48;67.38;101235.63;5053786;28;20271;-94
2022/04/21 00:08:00;;;;;;;5.25;3.63;;;;;;;7.55;67.40;101241.69;5053291;28;20483;-94
2022/04/21 00:10:59;;;;;;;6.72;3.55;;;;;;;7.49;67.77;101244.44;5092448;23;20040;-95
2022/04/21 00:13:49;;;;;;;6.93;3.90;;;;;;;7.42;68.20;101255.19;5073912;28;20040;-94
2022/04/21 00:16:18;;;;;;;7.00;4.03;;;;;;;7.26;68.83;101230.78;5081785;28;20040;-94
2022/04/21 00:19:24;;;;;;;9.43;4.20;;;;;;;7.33;68.14;101246.69;5078883;28;20056;-93
2022/04/21 00:24:39;;;;;;;7.97;3.45;;;;;;;7.30;68.71;101243.69;5080800;22;20044;-95
2022/04/21 00:27:04;;;;;;;6.53;3.47;;;;;;;7.26;69.17;101248.66;5094041;28;20040;-94
2022/04/21 00:32:14;;;;;;;7.22;3.97;;;;;;;7.08;69.12;101229.00;5403156;22;20523;-94
2022/04/21 00:35:21;;;;;;;7.05;3.70;;;;;;;7.18;69.37;101243.63;5055751;28;20029;-93
2022/04/21 00:38:16;;;;;;;9.82;3.97;;;;;;;7.06;69.59;101231.06;5011226;28;20067;-94
2022/04/21 00:41:16;;;;;;;6.03;3.88;;;;;;;6.99;69.26;101224.19;5056510;28;20492;-95
2022/04/21 00:43:52;;;;;;;8.60;4.10;;;;;;;6.95;69.90;101224.63;5045901;28;20044;-94
2022/04/21 00:46:21;;;;;;;5.27;3.80;;;;;;;7.03;70.20;101236.84;5055438;28;20344;-94
2022/04/21 00:51:51;;;;;;;7.93;3.92;;;;;;;6.97;69.68;101230.56;5080654;22;20415;-93
2022/04/21 00:54:20;;;;;;;7.53;3.78;;;;;;;6.87;70.36;101222.25;5057624;28;20024;-94
2022/04/21 00:57:15;;;;;;;7.78;3.85;;;;;;;6.83;70.08;101218.44;5075484;28;20024;-94
2022/04/21 00:59:52;;;;;;;10.65;4.00;;;;;;;6.75;70.55;101216.06;5074144;28;20494;-93
2022/04/21 01:05:15;;;;;;;5.45;3.72;;;;;;;6.71;71.24;101229.00;5074550;28;20043;-94
2022/04/21 01:07:46;;;;;;;6.57;3.97;;;;;;;6.63;72.27;101235.44;5078566;28;20035;-94
2022/04/21 01:10:38;;;;;;;10.53;5.50;;;;;;;6.55;71.70;101208.31;5075751;28;20051;-92
2022/04/21 01:13:16;;;;;;;9.80;5.27;;;;;;;6.58;71.84;101221.97;5057135;28;20375;-93
2022/04/21 01:15:54;;;;;;;6.82;4.93;;;;;;;6.58;71.96;101226.47;5074181;28;20043;-93
2022/04/21 01:18:44;;;;;;;9.82;4.53;;;;;;;6.58;71.55;101240.63;5075164;28;20487;-93
2022/04/21 01:21:31;;;;;;;8.07;4.45;;;;;;;6.59;71.98;101228.94;5076404;28;20093;-94
2022/04/21 01:23:57;;;;;;;9.30;4.28;;;;;;;6.49;72.74;101218.78;5057573;28;20051;-94
2022/04/21 01:26:46;;;;;;;7.03;4.37;;;;;;;6.43;72.86;101221.53;5074586;28;20475;-93
2022/04/21 01:29:24;;;;;;;8.40;4.18;;;;;;;6.43;72.46;101221.53;5052083;28;20114;-94
2022/04/21 01:32:14;;;;;;;5.68;4.18;;;;;;;6.42;72.05;101218.03;5071638;28;20040;-93
2022/04/21 01:34:54;;;;;;;9.60;4.40;;;;;;;6.33;72.48;101214.03;5075363;28;20029;-93
2022/04/21 01:42:57;;;;;;;8.35;4.53;;;;;;;6.17;73.34;101212.75;5898200;23;20425;-93
2022/04/21 01:45:22;;;;;;;5.83;4.03;;;;;;;6.20;73.71;101213.16;5075443;28;20033;-94
2022/04/21 01:50:53;;;;;;;7.28;4.63;;;;;;;6.08;72.59;101206.09;5030997;28;20036;-92
2022/04/21 01:53:19;;;;;;;8.68;4.20;;;;;;;6.06;73.63;101204.47;5054839;28;20033;-93
2022/04/21 02:11:44;;;;;;;14.30;4.80;;;;;;;5.83;75.86;101197.06;6048835;22;20606;-94
2022/04/21 02:14:19;;;;;;;8.77;4.65;;;;;;;5.76;75.25;101199.75;5056764;28;20127;-93
2022/04/21 02:17:31;;;;;;;9.82;4.57;;;;;;;5.88;74.73;101218.47;5053310;28;20037;-92
2022/04/21 02:20:16;;;;;;;5.97;3.85;;;;;;;5.83;74.37;101206.88;5032056;28;20149;-93
2022/04/21 02:22:59;;;;;;;7.50;4.45;;;;;;;5.69;74.84;101200.81;5016101;28;20069;-93
2022/04/21 02:25:24;;;;;;;7.25;4.38;;;;;;;5.67;75.68;101209.03;5015894;28;20176;-93
2022/04/21 02:28:15;;;;;;;6.87;4.57;;;;;;;5.73;74.74;101218.81;5031924;28;20045;-94
2022/04/21 02:31:30;;;;;;;6.82;4.65;;;;;;;5.71;74.94;101220.03;5031150;28;20068;-95
2022/04/21 02:33:55;;;;;;;8.15;4.97;;;;;;;5.54;76.31;101195.84;5019076;28;20050;-93
2022/04/21 02:36:20;;;;;;;12.60;4.60;;;;;;;5.56;77.09;101207.88;5028814;28;20071;-94
2022/04/21 02:38:55;;;;;;;8.27;5.10;;;;;;;5.53;76.36;101202.97;5036113;28;20055;-94
2022/04/21 02:41:26;;;;;;;8.50;4.80;;;;;;;5.53;76.89;101208.28;5046401;28;20378;-94
2022/04/21 02:43:52;;;;;;;7.53;5.28;;;;;;;5.47;77.08;101201.19;5001005;28;20040;-94
2022/04/21 02:46:17;;;;;;;8.00;5.17;;;;;;;5.41;76.93;101196.72;5078509;23;20053;-94
2022/04/21 02:49:17;;;;;;;11.80;4.45;;;;;;;5.49;76.58;101207.09;5053907;28;20369;-92
2022/04/21 02:51:52;;;;;;;6.93;4.27;;;;;;;5.45;76.66;101201.38;5037268;28;20516;-93
2022/04/21 02:57:20;;;;;;;9.80;4.88;;;;;;;5.40;76.66;101192.44;5041782;28;20559;-94
2022/04/21 03:05:57;;;;;;;7.53;4.72;;;;;;;5.30;76.80;101187.59;5035132;23;20057;-89
2022/04/21 03:08:57;;;;;;;8.95;4.28;;;;;;;5.42;76.63;101199.16;4994577;28;20034;-89
2022/04/21 03:11:23;;;;;;;8.50;4.60;;;;;;;5.39;77.34;101201.44;5011888;28;20033;-89
2022/04/21 03:14:00;;;;;;;12.17;4.70;;;;;;;5.26;77.00;101187.22;5010881;28;20084;-89
2022/04/21 03:16:26;;;;;;;6.97;4.55;;;;;;;5.32;77.08;101196.16;5009699;28;20038;-89
2022/04/21 03:19:27;;;;;;;5.82;4.20;;;;;;;5.28;76.94;101200.28;5226912;23;20050;-89
2022/04/21 03:33:55;;;;;;;8.63;4.90;;;;;;;5.03;77.70;101189.56;5128648;23;20048;-91
2022/04/21 03:36:53;;;;;;;9.13;4.65;;;;;;;5.10;77.58;101195.69;5090896;28;20497;-90
2022/04/21 03:41:54;;;;;;;10.80;5.28;;;;;;;5.10;77.94;101193.03;4322575;26;20545;-90
2022/04/21 03:47:19;;;;;;;9.80;4.93;;;;;;;5.18;77.28;101214.00;5427109;22;20063;-93
2022/04/21 03:49:59;;;;;;;9.07;5.05;;;;;;;5.11;77.96;101213.25;5108715;22;20056;-91
2022/04/21 03:52:24;;;;;;;6.70;4.70;;;;;;;5.03;78.72;101208.97;5075267;28;20058;-93
2022/04/21 03:55:27;;;;;;;8.77;5.00;;;;;;;5.00;77.85;101209.41;5092802;28;20269;-92
2022/04/21 04:00:27;;;;;;;7.30;4.70;;;;;;;4.91;79.06;101210.66;5904749;22;20053;-91
2022/04/21 04:02:58;;;;;;;11.23;5.57;;;;;;;4.89;79.42;101212.69;5052140;28;20297;-91
2022/04/21 04:05:23;;;;;;;7.77;5.20;;;;;;;4.90;79.00;101214.34;5055463;28;20025;-93
2022/04/21 04:14:54;;;;;;;11.77;4.70;;;;;;;4.75;78.46;101207.44;5063908;23;20135;-91
2022/04/21 04:28:50;;;;;;;8.15;5.68;;;;;;;4.62;79.27;101196.88;4976715;28;20058;-95
2022/04/21 04:31:46;;;;;;;9.88;4.75;;;;;;;4.65;79.04;101215.03;4976080;28;20073;-96
2022/04/21 04:59:32;;;;;;;7.35;4.45;;;;;;;4.85;78.86;101222.94;6075907;22;20043;-96
2022/04/21 05:25:30;;;;;;;11.95;5.65;;;;;;;5.19;78.19;101207.66;5072950;28;20035;-92
2022/04/21 05:27:55;;;;;;;9.60;5.15;;;;;;;5.34;78.10;101203.91;5057324;28;20392;-90
2022/04/21 05:33:24;;;;;;;11.00;4.70;;;;;;;5.49;77.69;101208.94;5056519;28;20148;-89
2022/04/21 05:35:57;;;;;;;16.88;6.03;;;;;;;5.65;77.53;101200.44;5059936;28;20059;-92
2022/04/21 05:38:23;;;;;;;8.60;5.20;;;;;;;5.83;77.39;101222.81;5065103;28;20027;-90
2022/04/21 05:41:18;;;;;;;10.02;5.85;;;;;;;5.88;76.48;101213.16;5079467;28;20012;-92
2022/04/21 05:59:50;;;;;;;7.97;5.03;;;;;;;6.60;74.32;101221.75;5211503;22;20318;-91
2022/04/21 06:02:18;;;;;;;8.88;5.18;;;;;;;6.60;74.00;101200.44;5059674;28;20025;-91
2022/04/21 06:05:21;;;;;;;10.93;5.70;;;;;;;6.79;73.60;101210.06;5078867;28;20587;-91
2022/04/21 06:07:56;;;;;;;9.23;5.80;;;;;;;6.82;73.38;101214.94;5155074;22;20068;-92
2022/04/21 06:14:29;;;;;;;;;;;;;;;;;;;;;
2022/04/21 06:16:55;;;;;;;10.90;5.40;;;;;;;7.33;71.27;101225.38;5302453;23;20124;-92
2022/04/21 06:19:29;;;;;;;9.00;5.83;;;;;;;7.33;71.33;101213.91;5082169;28;20052;-92
2022/04/21 06:21:54;;;;;;;11.60;5.38;;;;;;;7.48;69.94;101213.50;5074596;28;20005;-90
2022/04/21 06:24:19;;;;;;;9.07;5.60;;;;;;;7.58;70.20;101222.56;5089571;28;20062;-88
2022/04/21 06:26:45;;;;;;;9.47;5.40;;;;;;;7.67;70.13;101217.72;5081477;28;20025;-87
2022/04/21 06:29:13;;;;;;;9.20;5.68;;;;;;;7.69;69.71;101204.97;5086699;28;20031;-90
2022/04/21 06:32:29;;;;;;;10.17;5.57;;;;;;;7.81;69.68;101217.53;5086058;28;20115;-88
2022/04/21 06:34:32;;;;;;;14.80;5.72;;;;;;;7.93;68.88;101218.34;5073747;28;20147;-88
2022/04/21 06:39:25;;;;;;;9.40;5.63;;;;;;;8.13;68.01;101207.31;5016363;28;20077;-91
2022/04/21 06:41:50;;;;;;;13.97;5.70;;;;;;;8.24;68.17;101205.69;5014092;28;20017;-89
2022/04/21 06:51:01;;;;;;;9.52;5.63;;;;;;;8.59;66.71;101202.22;5072222;28;20150;-89
2022/04/21 06:53:58;;;;;;;7.68;5.45;;;;;;;8.71;66.25;101198.72;5071070;28;20372;-89
2022/04/21 06:58:55;;;;;;;8.98;4.60;;;;;;;8.77;64.86;101189.75;5711952;22;20533;-88
2022/04/21 07:04:51;;;;;;;9.82;5.78;;;;;;;9.06;65.54;101198.59;5085155;28;20051;-89
2022/04/21 07:07:23;;;;;;;8.45;5.32;;;;;;;9.12;65.04;101191.50;5091912;22;20436;-90
2022/04/21 07:09:48;;;;;;;9.70;5.10;;;;;;;9.31;64.31;101202.00;5053379;28;20025;-89
2022/04/21 07:27:54;;;;;;;6.60;4.83;;;;;;;9.89;61.25;101193.84;5449060;22;20306;-90
2022/04/21 07:30:56;;;;;;;9.05;4.72;;;;;;;10.07;61.40;101217.69;5096318;28;20032;-88
2022/04/21 07:33:28;;;;;;;9.27;4.72;;;;;;;10.19;60.69;101224.84;5083249;28;20047;-88
2022/04/21 07:36:14;;;;;;;10.20;5.25;;;;;;;10.25;61.69;101210.44;5090161;28;20071;-92
2022/04/21 07:42:27;;;;;;;7.95;4.85;;;;;;;10.48;60.38;101206.81;4918235;28;20054;-88
2022/04/21 07:45:01;;;;;;;9.70;4.90;;;;;;;10.68;59.82;101211.59;4965171;28;20038;-88
2022/04/21 07:47:33;;;;;;;7.90;4.40;;;;;;;10.79;58.63;101209.03;5027450;28;20045;-89
2022/04/21 07:50:27;;;;;;;9.88;5.15;;;;;;;10.89;59.85;101214.53;5061651;28;20017;-90
2022/04/21 07:55:37;;;;;;;8.97;4.50;;;;;;;11.18;59.54;101214.31;5065629;28;20634;-88
2022/04/21 07:58:03;;;;;;;7.70;4.85;;;;;;;11.26;58.13;101224.59;5052591;28;20025;-90
2022/04/21 08:00:29;;;;;;;5.70;4.13;;;;;;;11.27;56.74;101228.06;5054757;28;20533;-88
2022/04/21 08:02:54;;;;;;;7.22;4.78;;;;;;;11.36;58.13;101213.94;5048485;28;20091;-85
2022/04/21 08:05:21;;;;;;;14.03;5.77;;;;;;;11.50;58.34;101221.63;5046457;28;20416;-86
2022/04/21 08:07:48;;;;;;;6.15;4.45;;;;;;;11.64;58.75;101214.75;5047707;28;20025;-87
2022/04/21 08:10:14;;;;;;;8.27;4.57;;;;;;;11.84;56.77;101216.00;5050431;28;20112;-86
2022/04/21 08:12:45;;;;;;;7.23;4.80;;;;;;;11.97;57.76;101228.97;5049797;28;20522;-87
2022/04/21 08:15:21;;;;;;;4.90;3.90;;;;;;;12.10;56.71;101230.44;5050939;28;20763;-87
2022/04/21 08:17:50;;;;;;;8.98;4.57;;;;;;;12.10;56.03;101214.34;5051055;28;20354;-87
2022/04/21 08:39:16;;;;;;;8.88;4.47;;;;;;;13.01;54.22;101210.72;5699218;23;20055;-87
2022/04/21 08:44:58;;;;;;;6.00;4.20;;;;;;;13.20;54.68;101212.91;5090500;28;20296;-87
2022/04/21 08:50:52;;;;;;;6.47;4.50;;;;;;;13.43;53.92;101209.75;4951760;28;20067;-86
2022/04/21 08:54:03;;;;;;;7.05;4.10;;;;;;;13.62;54.48;101206.53;5051795;28;20021;-88
2022/04/21 08:57:08;;;;;;;10.65;3.70;;;;;;;13.60;52.88;101198.72;5061453;28;20116;-88
2022/04/21 09:06:23;;;;;;;7.88;3.90;;;;;;;14.01;52.79;101194.41;4992590;28;20107;-86
2022/04/21 09:09:14;;;;;;;5.13;3.17;;;;;;;14.20;51.62;101197.34;5062508;28;20079;-86
2022/04/21 09:11:43;;;;;;;5.47;3.37;;;;;;;14.27;50.51;101191.66;5075801;28;20031;-90
2022/04/21 10:03:54;;;;;;;4.35;2.25;;;;;;;15.85;37.68;101171.28;5956596;22;20079;-94
2022/04/21 10:06:32;;;;;;;4.80;1.90;;;;;;;15.69;38.85;101166.03;5073019;28;20029;-90
2022/04/21 10:09:17;;;;;;;4.47;2.20;;;;;;;15.80;39.07;101155.13;5073659;28;20331;-90
2022/04/21 10:15:23;;;;;;;7.05;2.70;;;;;;;16.02;38.74;101160.88;5020590;28;20077;-94
2022/04/21 10:17:48;;;;;;;3.53;2.30;;;;;;;15.98;38.09;101145.53;5043251;28;20083;-96
2022/04/21 10:50:13;;;;;;;4.03;1.63;;;;;;;17.40;33.79;101129.56;5675153;22;20082;-93
2022/04/21 11:47:47;;;;;;;4.27;2.00;;;;;;;18.29;30.10;101055.53;5180176;23;20313;-94
2022/04/21 11:50:51;;;;;;;5.45;2.10;;;;;;;18.49;30.17;101048.06;5099534;28;20043;-93
2022/04/21 11:53:55;;;;;;;2.80;2.00;;;;;;;18.56;31.35;101054.66;5017635;28;20049;-93
2022/04/21 13:48:09;;;;;;;;;;;;;;;;;;;;;
2022/04/21 13:51:02;;;;;;;6.97;2.70;;;;;;;19.81;32.69;100966.16;5072811;28;20128;-92
2022/04/21 13:54:18;;;;;;;9.10;2.83;;;;;;;20.01;32.61;100966.72;5020418;28;20555;-92
2022/04/21 14:05:47;;;;;;;12.25;3.30;;;;;;;20.03;32.88;100955.50;5058635;28;20087;-90
2022/04/21 14:08:42;;;;;;;5.53;3.47;;;;;;;19.82;32.24;100929.72;5053401;28;20036;-91
2022/04/21 14:11:24;;;;;;;10.10;3.33;;;;;;;19.72;33.63;100930.00;5054961;28;20290;-92
2022/04/21 14:13:55;;;;;;;5.35;3.33;;;;;;;19.91;33.29;100940.63;5066158;28;20044;-92
2022/04/21 14:46:54;;;;;;;8.70;3.67;;;;;;;19.67;35.78;100895.63;5009301;28;20080;-91
2022/04/21 14:52:19;;;;;;;8.95;3.60;;;;;;;19.92;35.67;100893.28;5060436;22;20053;-90
2022/04/21 14:54:45;;;;;;;6.18;3.75;;;;;;;19.98;35.16;100899.34;5219205;22;20004;-89
2022/04/21 14:57:16;;;;;;;7.60;4.10;;;;;;;20.03;35.67;100904.66;5071835;28;20658;-90
2022/04/21 14:59:42;;;;;;;9.10;3.47;;;;;;;20.01;35.44;100901.44;5070935;28;20039;-90
2022/04/21 15:05:29;;;;;;;5.03;3.17;;;;;;;20.10;35.79;100885.13;5580098;22;21158;-91
2022/04/21 15:07:55;;;;;;;8.73;3.57;;;;;;;20.28;35.11;100888.59;5058073;28;20040;-92
2022/04/21 15:10:20;;;;;;;5.43;3.30;;;;;;;20.22;34.67;100887.19;5073430;28;20025;-92
2022/04/21 15:12:48;;;;;;;5.10;3.45;;;;;;;20.33;34.84;100888.44;5073650;28;20383;-90
2022/04/21 15:15:14;;;;;;;10.73;3.23;;;;;;;20.74;35.28;100886.25;5072921;23;20041;-90
2022/04/21 15:17:39;;;;;;;10.43;3.20;;;;;;;21.18;33.34;100889.63;5065865;28;20433;-89
2022/04/21 15:20:05;;;;;;;5.80;3.53;;;;;;;21.15;33.88;100889.50;5150380;22;20040;-90
2022/04/21 15:26:14;;;;;;;8.37;3.27;;;;;;;19.92;36.10;100887.84;5075339;23;20053;-90
2022/04/21 15:28:58;;;;;;;8.43;3.43;;;;;;;19.43;36.89;100879.75;5035434;28;20366;-93
2022/04/21 15:42:01;;;;;;;6.70;3.75;;;;;;;19.65;36.92;100883.47;5072099;28;20090;-93
2022/04/21 15:50:22;;;;;;;7.25;3.45;;;;;;;19.95;36.43;100872.81;5095637;28;20097;-93
2022/04/21 15:52:48;;;;;;;7.97;3.40;;;;;;;19.78;36.14;100871.66;5094033;28;20525;-92
2022/04/21 16:01:16;;;;;;;8.20;3.33;;;;;;;18.72;38.58;100869.75;5091726;28;20051;-92
2022/04/21 16:03:44;;;;;;;8.00;3.40;;;;;;;19.15;38.16;100865.63;5090668;28;20282;-92
2022/04/21 16:06:16;;;;;;;9.77;3.08;;;;;;;19.34;38.21;100874.31;5093054;28;20028;-93
2022/04/21 16:08:59;;;;;;;7.90;4.00;;;;;;;19.22;38.01;100871.41;5093196;28;20470;-93
2022/04/21 16:11:25;;;;;;;5.43;3.60;;;;;;;19.06;38.70;100865.59;5073128;28;20027;-92
2022/04/21 16:14:22;;;;;;;15.45;4.10;;;;;;;19.45;38.73;100863.13;5090635;28;20032;-91
2022/04/21 16:16:59;;;;;;;5.28;3.65;;;;;;;19.61;38.22;100864.31;5094748;28;20040;-95
2022/04/21 16:20:18;;;;;;;8.15;3.80;;;;;;;19.71;38.04;100865.91;5095374;28;20126;-94
2022/04/21 16:22:46;;;;;;;5.40;3.60;;;;;;;19.24;38.80;100876.53;5058305;28;20380;-95
2022/04/21 16:25:22;;;;;;;8.45;3.90;;;;;;;18.93;39.20;100870.00;5076587;28;20033;-95
2022/04/21 16:28:00;;;;;;;7.53;3.37;;;;;;;19.09;39.60;100861.44;5076795;28;20537;-94
2022/04/21 16:30:44;;;;;;;6.20;3.67;;;;;;;19.48;38.52;100865.22;5095186;28;20297;-95
2022/04/21 16:33:21;;;;;;;4.20;3.80;;;;;;;19.40;38.86;100864.09;5095395;28;20031;-93
2022/04/21 16:36:05;;;;;;;6.57;3.60;;;;;;;19.46;38.33;100873.72;5204095;22;20048;-94
2022/04/21 16:38:48;;;;;;;5.82;3.30;;;;;;;19.33;38.78;100853.69;5062452;28;20052;-96
2022/04/21 16:41:46;;;;;;;4.93;3.40;;;;;;;19.37;38.64;100851.97;5056486;28;20105;-92
2022/04/21 16:44:14;;;;;;;4.88;3.30;;;;;;;19.24;38.76;100843.94;4952297;28;20646;-87
2022/04/21 16:46:43;;;;;;;8.32;3.20;;;;;;;19.15;38.26;100846.63;4972063;28;20422;-88
2022/04/21 16:49:45;;;;;;;6.50;3.55;;;;;;;19.09;39.28;100853.31;4968053;28;20035;-90
2022/04/21 16:52:57;;;;;;;8.13;3.20;;;;;;;19.04;39.46;100859.69;4970100;28;20050;-89
2022/04/21 16:55:56;;;;;;;7.57;3.10;;;;;;;18.89;39.95;100853.53;5307601;23;20109;-88
2022/04/21 17:05:09;;;;;;;3.60;2.83;;;;;;;17.99;41.30;100858.00;5199441;23;20566;-91
2022/04/21 17:07:37;;;;;;;4.77;3.00;;;;;;;17.73;41.76;100871.28;5072156;28;20020;-91
2022/04/21 17:10:02;;;;;;;4.82;3.15;;;;;;;17.47;43.23;100862.91;5071947;28;20055;-90
2022/04/21 17:17:50;;;;;;;6.03;3.40;;;;;;;17.02;44.17;100877.88;5423523;22;20057;-93
2022/04/21 17:20:16;;;;;;;7.30;2.85;;;;;;;16.78;44.49;100864.50;5067936;28;20033;-94
2022/04/21 17:22:47;;;;;;;10.52;3.47;;;;;;;16.72;44.84;100890.84;5057680;28;20543;-94
2022/04/21 17:28:18;;;;;;;8.10;3.73;;;;;;;16.38;45.22;100885.75;5049339;28;20048;-93
2022/04/21 17:30:52;;;;;;;6.13;3.97;;;;;;;16.54;44.84;100884.38;5054524;28;20878;-93
2022/04/21 17:36:18;;;;;;;9.45;3.63;;;;;;;16.08;45.58;100885.13;5268966;22;20060;-91
2022/04/21 17:38:50;;;;;;;7.50;3.88;;;;;;;16.02;45.53;100881.72;5101216;28;20027;-92
2022/04/21 17:44:05;;;;;;;10.30;4.10;;;;;;;15.62;46.55;100884.66;5200058;22;20039;-91
2022/04/21 17:46:33;;;;;;;5.97;3.58;;;;;;;15.56;46.77;100875.81;5078223;28;20039;-92
2022/04/21 17:49:02;;;;;;;9.10;4.15;;;;;;;15.49;47.60;100880.78;5067149;28;20175;-94
2022/04/21 17:51:27;;;;;;;10.38;3.50;;;;;;;15.41;46.72;100878.72;5059654;28;20547;-93
2022/04/21 17:53:56;;;;;;;6.67;3.90;;;;;;;15.38;47.29;100877.41;5069992;28;20063;-92
2022/04/21 17:56:21;;;;;;;13.70;4.18;;;;;;;15.33;47.67;100882.06;5079193;28;20036;-94
2022/04/21 17:58:46;;;;;;;8.67;4.70;;;;;;;15.32;47.85;100889.34;5078614;28;20025;-93
2022/04/21 18:01:11;;;;;;;7.80;4.17;;;;;;;15.26;48.20;100885.09;5078000;28;20092;-92
2022/04/21 18:24:40;;;;;;;8.38;4.07;;;;;;;14.56;49.87;100875.53;5098545;22;20059;-92
2022/04/21 18:30:33;;;;;;;9.60;4.40;;;;;;;14.36;50.31;100872.75;5078115;28;20823;-93
2022/04/21 18:33:28;;;;;;;9.00;4.00;;;;;;;14.31;49.91;100870.06;5073747;28;20523;-93
2022/04/21 18:35:53;;;;;;;11.20;3.95;;;;;;;14.19;50.68;100872.34;4970340;28;20131;-92
2022/04/21 18:38:40;;;;;;;6.97;4.15;;;;;;;14.17;50.78;100880.69;5060356;28;20053;-92
2022/04/21 18:41:25;;;;;;;6.90;4.00;;;;;;;14.12;50.81;100882.63;5076004;28;20089;-92
2022/04/21 18:44:30;;;;;;;8.88;3.78;;;;;;;13.96;51.11;100880.03;5076018;28;20017;-92
2022/04/21 18:46:58;;;;;;;7.00;4.10;;;;;;;13.83;51.83;100861.81;5062284;28;20040;-94
2022/04/21 18:49:25;;;;;;;9.90;4.00;;;;;;;13.82;52.33;100873.66;5074463;28;20059;-93
2022/04/21 18:51:59;;;;;;;7.50;4.05;;;;;;;13.74;52.72;100873.16;5075842;28;20068;-92
2022/04/21 18:54:42;;;;;;;9.43;4.35;;;;;;;13.63;53.47;100877.78;5062801;28;20525;-92
2022/04/21 18:57:12;;;;;;;6.97;4.63;;;;;;;13.58;53.28;100877.00;5038794;28;20029;-94
2022/04/21 18:59:37;;;;;;;7.13;4.50;;;;;;;13.45;54.05;100871.16;5060854;28;20032;-94
2022/04/21 19:02:04;;;;;;;10.30;4.60;;;;;;;13.40;54.10;100871.16;5068297;28;20021;-93
2022/04/21 19:04:51;;;;;;;13.60;5.20;;;;;;;13.31;53.92;100872.78;5104876;23;20044;-95
2022/04/21 19:07:16;;;;;;;11.38;4.90;;;;;;;13.17;55.41;100870.66;5097900;28;20043;-93
2022/04/21 19:12:34;;;;;;;8.32;4.88;;;;;;;13.00;55.98;100864.81;5092550;28;20039;-90
2022/04/21 19:21:02;;;;;;;14.53;5.30;;;;;;;12.87;56.98;100876.97;5775278;22;20210;-89
2022/04/21 19:23:27;;;;;;;8.90;5.27;;;;;;;12.77;57.84;100877.78;5261707;22;20308;-90
2022/04/21 19:25:53;;;;;;;12.63;5.07;;;;;;;12.72;58.06;100875.09;5084761;28;20032;-91
2022/04/21 19:28:21;;;;;;;13.80;5.57;;;;;;;12.71;58.00;100873.47;5088866;28;20024;-89
2022/04/21 19:30:48;;;;;;;8.70;4.78;;;;;;;12.65;58.01;100874.53;5090522;28;20028;-90
2022/04/21 19:33:14;;;;;;;7.32;4.32;;;;;;;12.64;57.70;100872.94;5090901;28;20021;-90
2022/04/21 19:35:39;;;;;;;8.60;4.80;;;;;;;12.66;57.03;100873.47;5092348;28;20035;-90
2022/04/21 19:38:05;;;;;;;7.63;4.57;;;;;;;12.64;57.30;100872.94;5111856;28;20004;-88
2022/04/21 19:40:30;;;;;;;7.13;4.60;;;;;;;12.57;57.25;100873.22;5066956;28;20032;-89
2022/04/21 19:45:39;;;;;;;6.47;4.43;;;;;;;12.40;57.04;100860.84;5057644;23;20045;-90
2022/04/21 19:48:41;;;;;;;14.13;3.90;;;;;;;12.42;56.47;100876.69;5059530;28;20044;-90
2022/04/21 19:51:19;;;;;;;6.82;3.30;;;;;;;12.34;56.59;100858.44;5063197;28;20060;-90
2022/04/21 19:53:48;;;;;;;5.40;3.35;;;;;;;12.31;56.41;100851.72;5043078;28;20028;-89
2022/04/21 19:56:18;;;;;;;10.23;3.73;;;;;;;12.31;55.77;100850.91;5060455;28;20029;-90
2022/04/21 19:58:44;;;;;;;5.50;3.40;;;;;;;12.30;56.60;100871.63;5066830;28;20276;-89
2022/04/21 20:01:12;;;;;;;9.63;3.50;;;;;;;12.35;56.61;100876.97;5072885;28;20027;-89
2022/04/21 20:03:41;;;;;;;7.82;3.25;;;;;;;12.40;55.75;100865.44;5054090;28;20055;-89
2022/04/21 20:09:02;;;;;;;7.75;3.38;;;;;;;12.37;55.97;100863.28;5063721;28;20080;-93
2022/04/21 20:16:52;;;;;;;5.90;3.90;;;;;;;12.37;54.72;100858.69;5303792;22;20100;-95
2022/04/21 20:22:26;;;;;;;8.27;2.93;;;;;;;12.39;54.22;100861.94;5072952;28;20545;-90
2022/04/21 20:28:52;;;;;;;6.90;3.00;;;;;;;12.45;54.47;100859.25;5086573;28;20054;-91
2022/04/21 20:37:18;;;;;;;6.13;2.80;;;;;;;12.31;54.92;100842.84;5147569;23;20504;-89
2022/04/21 20:45:20;;;;;;;8.43;2.92;;;;;;;12.18;55.10;100828.88;5081877;22;20056;-90
2022/04/21 20:47:50;;;;;;;6.03;2.97;;;;;;;12.23;55.49;100853.06;5075286;23;20135;-91
2022/04/21 20:50:25;;;;;;;5.67;3.20;;;;;;;12.08;55.38;100832.38;5096846;28;20032;-91
2022/04/21 20:52:50;;;;;;;5.43;2.70;;;;;;;12.05;55.80;100829.44;5094651;28;20290;-91
2022/04/21 20:55:19;;;;;;;6.07;3.10;;;;;;;12.00;55.99;100840.16;5075759;28;20063;-90
2022/04/21 20:57:49;;;;;;;7.20;2.90;;;;;;;11.85;56.47;100830.97;5088328;28;20542;-90
2022/04/21 21:00:48;;;;;;;5.55;2.65;;;;;;;11.75;56.25;100836.31;5072331;22;20465;-90
2022/04/21 21:03:26;;;;;;;8.15;2.85;;;;;;;11.60;56.75;100824.47;5046068;28;20056;-90
2022/04/21 21:05:51;;;;;;;9.05;2.80;;;;;;;11.55;58.08;100837.88;5075053;28;20035;-90
2022/04/21 21:08:47;;;;;;;8.33;2.80;;;;;;;11.43;58.15;100832.72;5056492;28;20230;-90
2022/04/21 21:11:15;;;;;;;6.55;2.63;;;;;;;11.30;59.01;100827.88;5071690;28;20033;-90
2022/04/21 21:13:46;;;;;;;6.13;3.08;;;;;;;11.20;59.00;100831.31;5076266;28;20062;-90
2022/04/21 21:16:18;;;;;;;6.03;3.03;;;;;;;11.15;59.04;100834.78;5060121;28;20124;-90
2022/04/21 21:18:50;;;;;;;7.23;3.17;;;;;;;11.09;59.26;100818.94;5092184;28;20297;-92
2022/04/21 21:21:24;;;;;;;4.63;2.60;;;;;;;11.18;59.58;100828.91;5056633;28;20017;-90
2022/04/21 21:23:50;;;;;;;4.88;3.17;;;;;;;11.09;59.82;100824.31;5073948;28;20032;-90
2022/04/21 21:28:43;;;;;;;5.20;2.93;;;;;;;10.96;60.18;100837.09;5081133;22;20044;-90
2022/04/21 21:31:17;;;;;;;6.20;2.95;;;;;;;10.81;60.22;100827.09;5074324;28;20036;-90
2022/04/21 21:33:49;;;;;;;7.38;3.17;;;;;;;10.80;60.84;100835.38;5091606;23;20475;-90
2022/04/21 21:38:48;;;;;;;7.37;2.93;;;;;;;10.56;61.14;100817.03;5071282;22;20319;-89
2022/04/21 21:41:17;;;;;;;6.18;3.22;;;;;;;10.46;61.75;100823.13;5060688;28;20104;-90
2022/04/21 21:43:42;;;;;;;12.52;3.25;;;;;;;10.41;62.04;100825.75;5057522;28;20048;-90
2022/04/21 21:46:16;;;;;;;6.82;3.13;;;;;;;10.32;61.93;100822.72;5074711;28;20070;-90
2022/04/21 21:54:20;;;;;;;6.93;3.03;;;;;;;10.13;62.89;100816.94;5073856;28;20135;-90
2022/04/21 21:56:49;;;;;;;5.43;3.10;;;;;;;10.04;63.31;100816.63;5073620;28;20029;-90
2022/04/21 21:59:20;;;;;;;7.70;3.40;;;;;;;10.15;63.46;100830.88;5072564;28;20021;-89
2022/04/21 22:01:48;;;;;;;5.25;3.15;;;;;;;10.15;63.70;100828.19;5073268;28;20086;-90
2022/04/21 22:04:17;;;;;;;6.22;3.00;;;;;;;10.12;63.85;100824.16;5074674;28;20021;-90
2022/04/21 22:06:48;;;;;;;6.82;3.40;;;;;;;10.13;63.74;100820.44;5075095;28;20029;-89
2022/04/21 22:09:16;;;;;;;5.50;3.05;;;;;;;10.14;63.88;100808.66;5075044;28;20538;-90
2022/04/21 22:11:48;;;;;;;5.03;3.40;;;;;;;10.18;64.11;100813.50;5077207;28;20032;-90
2022/04/21 22:14:23;;;;;;;8.87;3.23;;;;;;;10.17;63.90;100803.84;5071610;28;20119;-90
2022/04/21 22:16:50;;;;;;;7.27;3.20;;;;;;;10.23;64.35;100821.56;5058694;28;20275;-89
2022/04/21 22:19:25;;;;;;;5.40;3.38;;;;;;;10.17;64.49;100819.91;5075424;28;20027;-89
2022/04/21 22:21:50;;;;;;;5.47;3.00;;;;;;;10.17;64.36;100819.91;5051610;28;20037;-90
2022/04/21 22:24:18;;;;;;;6.50;3.42;;;;;;;10.14;64.52;100814.00;5035464;28;20124;-90
2022/04/21 22:29:25;;;;;;;5.22;3.33;;;;;;;10.12;64.14;100801.94;5011655;28;20053;-90
2022/04/21 22:32:18;;;;;;;7.63;3.67;;;;;;;10.25;64.68;100819.44;5013650;28;20416;-91
2022/04/21 22:34:49;;;;;;;4.63;3.03;;;;;;;10.18;64.35;100805.47;5033695;23;20040;-89
2022/04/21 22:40:29;;;;;;;8.77;3.10;;;;;;;9.98;64.92;100802.34;5088766;28;20101;-89
2022/04/21 22:42:54;;;;;;;6.78;3.42;;;;;;;9.95;65.45;100783.31;5092344;28;20024;-89
2022/04/21 22:45:20;;;;;;;6.00;3.23;;;;;;;9.97;65.76;100803.41;5092066;28;20051;-89
2022/04/21 22:50:52;;;;;;;6.85;3.70;;;;;;;9.92;66.02;100807.91;5060560;23;20052;-89
2022/04/21 22:53:30;;;;;;;8.13;3.57;;;;;;;9.92;65.67;100797.22;5067371;22;20430;-90
2022/04/21 22:56:17;;;;;;;6.63;3.80;;;;;;;9.99;65.75;100820.03;5052618;28;20298;-90
2022/04/21 22:59:33;;;;;;;7.32;4.20;;;;;;;9.94;66.23;100819.19;5044471;28;20104;-90